Flight Track Log - Related Links

Times and Time Zones

All times are in EDT time to prevent confusion due to time zone crossing. See the AWE997 flight status page for this flight to view local times or setup timezone preferences in your user account.

Time Position Orientation Groundspeed Altitude Reporting Facility
EDT Latitude Longitude Course Direction KTS MPH feet Rate Location/Type
10:52AM 41.9510 -87.9030 217° Southwest 149 171 1,000  Level FlightAware
10:53AM 41.9430 -87.9070 200° South 138 159 1,700 2,250 Climbing FlightAware
10:53AM 41.9280 -87.8900 140° Southeast 193 222 2,500 1,714 Climbing FlightAware
10:53AM 41.9270 -87.8800 98° East 210 242 2,700 1,867 Climbing FlightAware
10:54AM 41.9320 -87.8260 83° East 242 278 3,900 1,900 Climbing FlightAware
10:54AM 41.9360 -87.7860 82° East 276 318 4,600 840 Climbing FlightAware
10:55AM 41.9360 -87.7400 90° East 288 331 4,600  Level FlightAware
10:55AM 41.9370 -87.6850 89° East 292 336 4,600 267 Level FlightAware
10:55AM 41.9380 -87.6600 87° East 290 334 4,800 2,133 Climbing FlightAware
10:56AM 41.9390 -87.6060 89° East 295 339 6,200 2,945 Climbing FlightAware
10:56AM 41.9390 -87.5600 90° East 296 341 7,500 3,055 Climbing FlightAware
10:57AM 41.9400 -87.5050 89° East 301 346 9,000 2,880 Climbing FlightAware
10:58AM 41.9410 -87.4180 89° East 312 359 11,100 2,753 Climbing FlightAware
10:58AM 41.9420 -87.3390 89° East 320 368 12,900 2,475 Climbing FlightAware
10:59AM 41.9430 -87.2630 89° East 328 377 14,400 2,118 Climbing FlightAware
11:00AM 41.9440 -87.1650 89° East 350 403 15,900 2,471 Climbing FlightAware
11:00AM 41.9450 -87.0780 89° East 339 390 17,900 2,188 Climbing FlightAware
11:01AM 41.9470 -86.9830 88° East 361 415 19,000 1,624 Climbing FlightAware
11:02AM 41.9480 -86.8910 89° East 373 429 20,200 1,760 Climbing FlightAware
11:02AM 41.9490 -86.8080 89° East 383 441 21,200 1,760 Climbing FlightAware
11:03AM 41.9510 -86.7100 88° East 394 453 22,400 1,200 Climbing FlightAware
11:04AM 41.9520 -86.5870 89° East 423 487 23,000 505 Climbing FlightAware
11:05AM 41.9470 -86.4760 93° East 434 499 23,200 450 Climbing FlightAware
11:05AM 41.9160 -86.3920 116° Southeast 434 499 23,600 900 Climbing FlightAware
11:06AM 41.8690 -86.2700 117° Southeast 450 518 24,400 1,133 Climbing FlightAware
11:07AM 41.8290 -86.1630 117° Southeast 455 524 25,300 988 Climbing FlightAware
11:07AM 41.7990 -86.0610 112° Southeast 472 543 25,800 635 Climbing FlightAware
11:08AM 41.7920 -85.9200 94° East 498 573 26,200 635 Climbing FlightAware
11:09AM 41.7880 -85.7960 92° East 514 592 26,700 975 Climbing FlightAware
11:09AM 41.7830 -85.6710 93° East 518 596 27,500 1,059 Climbing FlightAware
11:10AM 41.7770 -85.5300 93° East 526 605 28,200 918 Climbing FlightAware
11:11AM 41.7710 -85.3900 93° East 535 616 28,800 825 Climbing FlightAware
11:12AM 41.7660 -85.2590 93° East 543 625 29,300 918 Climbing FlightAware
11:12AM 41.7590 -85.0990 93° East 548 631 30,100 1,059 Climbing FlightAware
11:13AM 41.7530 -84.9720 94° East 549 632 30,800 1,200 Climbing FlightAware
11:14AM 41.7460 -84.8130 93° East 549 632 31,800 1,200 Climbing FlightAware
11:14AM 41.7380 -84.6860 95° East 550 633 32,500 1,200 Climbing FlightAware
11:15AM 41.7130 -84.5290 102° East 547 629 33,500 1,271 Climbing FlightAware
11:16AM 41.6890 -84.3980 104° East 544 626 34,300 1,125 Climbing FlightAware
11:16AM 41.6640 -84.2670 104° East 533 613 35,000 525 Climbing FlightAware
11:17AM 41.6420 -84.1500 104° East 528 608 35,000  Level FlightAware
11:18AM 41.6140 -84.0010 104° East 528 608 35,000  Level FlightAware
11:19AM 41.5870 -83.8570 104° East 527 606 35,000  Level FlightAware
11:19AM 41.5640 -83.7380 104° East 527 606 35,000  Level FlightAware
11:20AM 41.5380 -83.6030 104° East 526 605 35,000  Level FlightAware
11:21AM 41.5120 -83.4660 104° East 526 605 35,000  Level FlightAware
11:21AM 41.4870 -83.3410 105° East 526 605 35,000  Level FlightAware
11:22AM 41.4590 -83.2010 105° East 525 604 35,000  Level FlightAware
11:23AM 41.4340 -83.0720 104° East 525 604 35,000  Level FlightAware
11:23AM 41.4130 -82.9670 105° East 524 603 35,000  Level FlightAware
11:24AM 41.3710 -82.7580 105° East 524 603 35,000  Level FlightAware
11:25AM 41.3460 -82.6350 105° East 525 604 35,000  Level FlightAware
11:26AM 41.3250 -82.5300 105° East 526 605 35,000  Level FlightAware
11:27AM 41.2930 -82.3730 105° East 525 604 35,000  Level FlightAware
11:27AM 41.2670 -82.2470 105° East 524 603 35,000  Level FlightAware
11:28AM 41.2410 -82.1250 106° East 523 602 35,000  Level FlightAware
11:29AM 41.2120 -81.9820 105° East 522 601 35,000  Level FlightAware
11:29AM 41.1860 -81.8590 106° East 522 601 35,000  Level FlightAware
11:30AM 41.1590 -81.7350 106° East 522 601 35,000  Level FlightAware
11:31AM 41.1310 -81.6000 105° East 521 600 35,000  Level FlightAware
11:31AM 41.1040 -81.4770 106° East 519 597 35,000  Level FlightAware
11:32AM 41.0740 -81.3380 106° East 518 596 35,000  Level FlightAware
11:33AM 41.0480 -81.2150 106° East 518 596 35,000  Level FlightAware
11:33AM 41.0210 -81.0940 106° East 517 595 35,000  Level FlightAware
11:34AM 40.9920 -80.9600 106° East 517 595 35,000  Level FlightAware
11:35AM 40.9610 -80.8210 106° East 515 593 35,000  Level FlightAware
11:36AM 40.9340 -80.6980 106° East 514 592 35,000  Level FlightAware
11:36AM 40.9050 -80.5690 107° East 513 590 35,000  Level FlightAware
11:37AM 40.8780 -80.4460 106° East 512 589 35,000  Level FlightAware
11:38AM 40.8510 -80.3280 107° East 513 590 35,000  Level FlightAware
11:38AM 40.8210 -80.2070 108° East 512 589 35,000  Level FlightAware
11:39AM 40.7760 -80.0770 115° Southeast 510 587 35,000  Level FlightAware
11:40AM 40.7370 -79.9680 115° Southeast 508 585 35,000  Level FlightAware
11:41AM 40.6920 -79.8450 116° Southeast 507 583 35,000  Level FlightAware
11:41AM 40.6610 -79.7610 116° Southeast 507 583 35,000  Level FlightAware
11:42AM 40.6110 -79.6180 115° Southeast 508 585 35,000  Level FlightAware
11:43AM 40.5920 -79.5230 105° East 507 583 35,000  Level FlightAware
11:43AM 40.5780 -79.3990 98° East 506 582 35,000 -212 Level FlightAware
11:44AM 40.5610 -79.2440 98° East 506 582 34,700 -695 Descending FlightAware
11:45AM 40.5460 -79.1090 98° East 509 586 33,900 -1,200 Descending FlightAware
11:45AM 40.5440 -78.9930 91° East 503 579 33,000 -1,725 Descending FlightAware
11:46AM 40.5360 -78.8660 95° East 508 585 31,600 -1,950 Descending FlightAware
11:47AM 40.5230 -78.7530 99° East 501 577 30,400 -1,800 Descending FlightAware
11:47AM 40.5090 -78.6440 100° East 499 574 29,200 -1,950 Descending FlightAware
11:48AM 40.4930 -78.5180 99° East 496 571 27,800 -1,950 Descending FlightAware
11:49AM 40.4780 -78.3990 99° East 487 560 26,600 -1,263 Descending FlightAware
11:50AM 40.4600 -78.2520 99° East 481 554 25,800 -457 Descending FlightAware
11:52AM 40.5230 -78.7550 280° West 25,000 -310 Descending FlightAware
11:52AM 40.3960 -77.7930 100° East 499 574 25,000  Level FlightAware
11:53AM 40.3740 -77.6450 101° East 499 574 25,000 -267 Level FlightAware
11:54AM 40.3550 -77.5130 101° East 493 567 24,600 -918 Descending FlightAware
11:54AM 40.3380 -77.3940 101° East 482 555 23,700 -1,553 Descending FlightAware
11:55AM 40.3190 -77.2690 101° East 471 542 22,400 -1,835 Descending FlightAware
11:56AM 40.3030 -77.1620 101° East 462 532 21,100 -1,511 Descending FlightAware
11:57AM 40.2880 -77.0590 101° East 19,900 -1,326 Descending FlightAware
11:57AM 40.2660 -76.9160 101° East 448 516 19,000 -568 Descending FlightAware
11:58AM 40.2470 -76.7900 101° East 449 517 19,000 -667 Level FlightAware
11:59AM 40.2280 -76.6710 102° East 444 511 18,000 -1,810 Descending FlightAware
11:59AM 40.2186 -76.6073 101° East 443 510 17,100 -2,353 Descending FlightAware ADS-B
12:00PM 40.2050 -76.5204 102° East 437 503 16,000 -2,123 Descending FlightAware ADS-B
12:00PM 40.1924 -76.4394 101° East 429 494 14,800 -2,129 Descending FlightAware ADS-B
12:01PM 40.1805 -76.3636 102° East 420 483 13,800 -2,129 Descending FlightAware ADS-B
12:01PM 40.1682 -76.2853 102° East 408 470 12,600 -1,905 Descending FlightAware ADS-B
12:02PM 40.1567 -76.2132 102° East 391 450 11,800 -1,258 Descending FlightAware ADS-B
12:02PM 40.1456 -76.1432 102° East 367 422 11,300 -1,377 Descending FlightAware ADS-B
12:03PM 40.1353 -76.0791 102° East 358 412 10,400 -1,368 Descending FlightAware ADS-B
12:03PM 40.1265 -76.0239 102° East 340 391 10,000 -837 Descending FlightAware ADS-B
12:04PM 40.1214 -75.9925 102° East 329 379 9,800 -774 Descending FlightAware ADS-B
12:04PM 40.1168 -75.9630 102° East 318 366 9,600 -800 Descending FlightAware ADS-B
12:04PM 40.1123 -75.9351 102° East 310 357 9,400 -1,355 Descending FlightAware ADS-B
12:04PM 40.1075 -75.9055 102° East 310 357 8,900 -1,500 Descending FlightAware ADS-B
12:05PM 40.1029 -75.8775 102° East 309 356 8,600 -1,313 Descending FlightAware ADS-B
12:05PM 40.0983 -75.8489 102° East 307 353 8,200 -1,548 Descending FlightAware ADS-B
12:05PM 40.0937 -75.8205 102° East 301 346 7,800 -1,273 Descending FlightAware ADS-B
12:05PM 40.0887 -75.7899 102° East 300 345 7,500 -1,091 Descending FlightAware ADS-B
12:06PM 40.0844 -75.7633 102° East 300 345 7,200 -1,333 Descending FlightAware ADS-B
12:06PM 40.0834 -75.7570 102° East 300 345 7,100 -1,333 Descending FlightAware ADS-B
12:06PM 40.0823 -75.7472 98° East 299 344 7,000 -1,143 Descending FlightAware ADS-B
12:06PM 40.0808 -75.7193 94° East 291 335 6,700 -1,161 Descending FlightAware ADS-B
12:06PM 40.0795 -75.6912 93° East 284 327 6,400 -1,125 Descending FlightAware ADS-B
12:07PM 40.0782 -75.6643 94° East 280 322 6,100 -1,059 Descending FlightAware ADS-B
12:07PM 40.0768 -75.6358 94° East 274 315 5,800 -909 Descending FlightAware ADS-B
12:07PM 40.0756 -75.6105 94° East 276 318 5,600 -643 Descending FlightAware ADS-B
12:07PM 40.0745 -75.5887 94° East 283 326 5,500  Descending FlightAware ADS-B
12:08PM 40.0731 -75.5595 94° East 282 325 5,600 176 Climbing FlightAware ADS-B
12:08PM 40.0718 -75.5314 93° East 283 326 5,600  Level FlightAware ADS-B
12:08PM 40.0701 -75.4970 94° East 284 327 5,600  Level FlightAware ADS-B
12:08PM 40.0689 -75.4712 93° East 284 327 5,600 -200 Level FlightAware ADS-B
12:09PM 40.0676 -75.4450 94° East 283 326 5,500  Descending FlightAware ADS-B
12:09PM 40.0663 -75.4191 94° East 281 323 5,600  Climbing FlightAware ADS-B
12:09PM 40.0649 -75.3921 94° East 283 326 5,500  Descending FlightAware ADS-B
12:10PM 40.0635 -75.3629 94° East 281 323 5,600 182 Climbing FlightAware ADS-B
12:10PM 40.0622 -75.3370 94° East 283 326 5,600 -200 Level FlightAware ADS-B
12:10PM 40.0608 -75.3105 94° East 284 327 5,500  Descending FlightAware ADS-B
12:10PM 40.0596 -75.2851 94° East 276 318 5,600 194 Climbing FlightAware ADS-B
12:11PM 40.0583 -75.2608 94° East 259 298 5,600  Level FlightAware ADS-B
12:11PM 40.0573 -75.2390 93° East 255 293 5,600  Level FlightAware ADS-B
12:11PM 40.0569 -75.2325 95° East 255 293 5,600  Level FlightAware ADS-B
12:11PM 40.0562 -75.2259 98° East 255 293 5,600 -750 Level FlightAware ADS-B
12:11PM 40.0552 -75.2199 102° East 254 292 5,500 -667 Descending FlightAware ADS-B
12:11PM 40.0537 -75.2123 104° East 254 292 5,500 286 Level FlightAware ADS-B
12:11PM 40.0482 -75.1896 108° East 251 289 5,600 182 Climbing FlightAware ADS-B
12:12PM 40.0422 -75.1659 108° East 252 290 5,600 -188 Level FlightAware ADS-B
12:12PM 40.0367 -75.1440 108° East 249 287 5,500  Descending FlightAware ADS-B
12:12PM 40.0332 -75.1300 108° East 245 282 5,600  Climbing FlightAware ADS-B
12:12PM 40.0307 -75.1232 116° Southeast 244 281 5,500 -500 Descending FlightAware ADS-B
12:12PM 40.0261 -75.1150 126° Southeast 240 276 5,500 -462 Level FlightAware ADS-B
12:12PM 40.0212 -75.1095 139° Southeast 236 272 5,400 -429 Descending FlightAware ADS-B
12:12PM 40.0138 -75.1043 152° Southeast 227 261 5,400 -500 Level FlightAware ADS-B
12:13PM 40.0099 -75.1026 162° South 222 255 5,300 -1,263 Descending FlightAware ADS-B
12:13PM 39.9947 -75.0972 165° South 215 247 5,000 -1,200 Descending FlightAware ADS-B
12:13PM 39.9809 -75.0929 167° South 200 230 4,700 -1,154 Descending FlightAware ADS-B
12:13PM 39.9711 -75.0900 167° South 196 226 4,500 -1,714 Descending FlightAware ADS-B
12:14PM 39.9563 -75.0856 167° South 196 226 3,900 -2,250 Descending FlightAware ADS-B
12:14PM 39.9426 -75.0814 167° South 195 224 3,300 -1,800 Descending FlightAware ADS-B
12:14PM 39.9293 -75.0770 166° South 193 222 3,000 -1,429 Descending FlightAware ADS-B
12:14PM 39.9245 -75.0760 171° South 189 217 2,800 -1,333 Descending FlightAware ADS-B
12:14PM 39.9216 -75.0762 183° South 186 214 2,800 -1,333 Level FlightAware ADS-B
12:14PM 39.9167 -75.0784 199° South 180 207 2,600 -1,385 Descending FlightAware ADS-B
12:14PM 39.9121 -75.0827 216° Southwest 176 203 2,500 -1,500 Descending FlightAware ADS-B
12:14PM 39.9097 -75.0861 227° Southwest 170 196 2,300 -1,800 Descending FlightAware ADS-B
12:15PM 39.9071 -75.0906 233° Southwest 164 189 2,200 -1,333 Descending FlightAware ADS-B
12:15PM 39.9054 -75.0941 238° Southwest 159 183 2,100 -1,286 Descending FlightAware ADS-B
12:15PM 39.9018 -75.1017 238° Southwest 156 180 1,900 -1,600 Descending FlightAware ADS-B
12:15PM 39.9001 -75.1056 240° Southwest 156 180 1,700 -2,000 Descending FlightAware ADS-B
12:15PM 39.8988 -75.1095 247° West 155 178 1,600 -1,200 Descending FlightAware ADS-B
12:15PM 39.8972 -75.1147 248° West 152 175 1,500 -1,263 Descending FlightAware ADS-B
12:15PM 39.8946 -75.1257 253° West 156 180 1,200 -1,333 Descending FlightAware ADS-B
12:15PM 39.8920 -75.1386 255° West 147 169 900 -800 Descending FlightAware ADS-B
12:16PM 39.8894 -75.1514 255° West 140 161 800 -750 Descending FlightAware ADS-B
12:16PM 39.8868 -75.1647 256° West 142 163 500 -1,000 Descending FlightAware ADS-B
12:16PM 39.8845 -75.1762 255° West 138 159 300 -774 Descending FlightAware ADS-B
12:17PM 39.8818 -75.1899 256° West 137 158 100 -706 Descending FlightAware ADS-B
12:17PM 39.8770 -75.2160 257° West 131 151 -150 Descending FlightAware

Login

Don't have an account? Register now (free) for customized features, flight alerts, and more!